sensor_id;sensor_type;location;lat;lon;timestamp;pressure;altitude;pressure_sealevel;temperature;humidity
15382;BME280;7789;51.364;12.358;2024-03-17T00:03:30;101078.34;;;6.29;98.67
15382;BME280;7789;51.364;12.358;2024-03-17T00:08:34;101076.19;;;6.22;98.41
15382;BME280;7789;51.364;12.358;2024-03-17T00:13:54;101078.16;;;6.17;99.06
15382;BME280;7789;51.364;12.358;2024-03-17T00:19:02;101081.91;;;6.11;99.04
15382;BME280;7789;51.364;12.358;2024-03-17T00:24:16;101083.09;;;6.06;99.52
15382;BME280;7789;51.364;12.358;2024-03-17T00:29:46;101077.28;;;6.01;100.00
15382;BME280;7789;51.364;12.358;2024-03-17T00:34:53;101081.88;;;5.96;100.00
15382;BME280;7789;51.364;12.358;2024-03-17T00:40:11;101082.97;;;5.92;100.00
15382;BME280;7789;51.364;12.358;2024-03-17T00:45:25;101084.88;;;5.88;100.00
15382;BME280;7789;51.364;12.358;2024-03-17T00:50:41;101093.72;;;5.84;100.00
15382;BME280;7789;51.364;12.358;2024-03-17T00:55:52;101083.50;;;5.81;100.00
15382;BME280;7789;51.364;12.358;2024-03-17T01:01:03;101091.44;;;5.78;100.00
15382;BME280;7789;51.364;12.358;2024-03-17T01:06:07;101084.63;;;5.76;100.00
15382;BME280;7789;51.364;12.358;2024-03-17T01:11:19;101079.59;;;5.73;100.00
15382;BME280;7789;51.364;12.358;2024-03-17T01:16:38;101078.75;;;5.72;100.00
15382;BME280;7789;51.364;12.358;2024-03-17T01:21:43;101072.25;;;5.64;100.00
15382;BME280;7789;51.364;12.358;2024-03-17T01:26:48;101081.88;;;5.62;100.00
15382;BME280;7789;51.364;12.358;2024-03-17T01:32:04;101084.63;;;5.59;100.00
15382;BME280;7789;51.364;12.358;2024-03-17T01:37:09;101080.59;;;5.53;100.00
15382;BME280;7789;51.364;12.358;2024-03-17T01:42:13;101081.56;;;5.51;100.00
15382;BME280;7789;51.364;12.358;2024-03-17T01:47:25;101083.34;;;5.50;100.00
15382;BME280;7789;51.364;12.358;2024-03-17T01:52:37;101081.19;;;5.58;100.00
15382;BME280;7789;51.364;12.358;2024-03-17T01:57:50;101070.81;;;5.58;100.00
15382;BME280;7789;51.364;12.358;2024-03-17T02:03:04;101079.84;;;5.51;100.00
15382;BME280;7789;51.364;12.358;2024-03-17T02:08:17;101075.94;;;5.43;100.00
15382;BME280;7789;51.364;12.358;2024-03-17T02:13:23;101075.34;;;5.38;100.00
15382;BME280;7789;51.364;12.358;2024-03-17T02:18:34;101076.75;;;5.43;100.00
15382;BME280;7789;51.364;12.358;2024-03-17T02:23:43;101068.38;;;5.38;100.00
15382;BME280;7789;51.364;12.358;2024-03-17T02:28:50;101073.88;;;5.33;100.00
15382;BME280;7789;51.364;12.358;2024-03-17T02:33:55;101071.66;;;5.25;100.00
15382;BME280;7789;51.364;12.358;2024-03-17T02:39:12;101062.44;;;5.20;100.00
15382;BME280;7789;51.364;12.358;2024-03-17T02:44:38;101068.75;;;5.14;100.00
15382;BME280;7789;51.364;12.358;2024-03-17T02:49:58;101065.47;;;5.11;100.00
15382;BME280;7789;51.364;12.358;2024-03-17T02:55:09;101059.66;;;5.06;100.00
15382;BME280;7789;51.364;12.358;2024-03-17T03:00:21;101067.59;;;5.03;100.00
15382;BME280;7789;51.364;12.358;2024-03-17T03:05:32;101058.34;;;4.97;100.00
15382;BME280;7789;51.364;12.358;2024-03-17T03:10:46;101070.63;;;4.94;100.00
15382;BME280;7789;51.364;12.358;2024-03-17T03:15:52;101071.75;;;4.88;100.00
15382;BME280;7789;51.364;12.358;2024-03-17T03:20:57;101074.41;;;4.87;100.00
15382;BME280;7789;51.364;12.358;2024-03-17T03:26:13;101064.19;;;4.84;100.00
15382;BME280;7789;51.364;12.358;2024-03-17T03:31:18;101059.31;;;4.78;100.00
15382;BME280;7789;51.364;12.358;2024-03-17T03:36:32;101061.19;;;4.74;100.00
15382;BME280;7789;51.364;12.358;2024-03-17T03:41:47;101064.75;;;4.72;100.00
15382;BME280;7789;51.364;12.358;2024-03-17T03:47:00;101071.06;;;4.66;100.00
15382;BME280;7789;51.364;12.358;2024-03-17T03:52:04;101079.84;;;4.64;100.00
15382;BME280;7789;51.364;12.358;2024-03-17T03:57:11;101086.88;;;4.60;100.00
15382;BME280;7789;51.364;12.358;2024-03-17T04:02:20;101090.53;;;4.56;100.00
15382;BME280;7789;51.364;12.358;2024-03-17T04:07:27;101091.50;;;4.54;100.00
15382;BME280;7789;51.364;12.358;2024-03-17T04:12:37;101099.34;;;4.52;100.00
15382;BME280;7789;51.364;12.358;2024-03-17T04:17:42;101085.75;;;4.47;100.00
15382;BME280;7789;51.364;12.358;2024-03-17T04:22:52;101091.84;;;4.46;100.00
15382;BME280;7789;51.364;12.358;2024-03-17T04:28:06;101088.59;;;4.43;100.00
15382;BME280;7789;51.364;12.358;2024-03-17T04:33:11;101085.19;;;4.41;100.00
15382;BME280;7789;51.364;12.358;2024-03-17T04:38:14;101086.19;;;4.38;100.00
15382;BME280;7789;51.364;12.358;2024-03-17T04:43:42;101090.59;;;4.36;100.00
15382;BME280;7789;51.364;12.358;2024-03-17T04:48:53;101092.47;;;4.33;100.00
15382;BME280;7789;51.364;12.358;2024-03-17T04:54:05;101100.28;;;4.31;100.00
15382;BME280;7789;51.364;12.358;2024-03-17T04:59:17;101093.44;;;4.30;100.00
15382;BME280;7789;51.364;12.358;2024-03-17T05:04:22;101097.03;;;4.28;100.00
15382;BME280;7789;51.364;12.358;2024-03-17T05:09:27;101105.63;;;4.28;100.00
15382;BME280;7789;51.364;12.358;2024-03-17T05:14:37;101109.88;;;4.29;100.00
15382;BME280;7789;51.364;12.358;2024-03-17T05:19:43;101108.97;;;4.30;100.00
15382;BME280;7789;51.364;12.358;2024-03-17T05:24:52;101112.28;;;4.34;100.00
15382;BME280;7789;51.364;12.358;2024-03-17T05:30:08;101118.16;;;4.37;100.00
15382;BME280;7789;51.364;12.358;2024-03-17T05:35:15;101120.66;;;4.39;100.00
15382;BME280;7789;51.364;12.358;2024-03-17T05:40:29;101126.41;;;4.45;100.00
15382;BME280;7789;51.364;12.358;2024-03-17T05:45:38;101138.19;;;4.52;100.00
15382;BME280;7789;51.364;12.358;2024-03-17T05:50:52;101144.69;;;4.61;100.00
15382;BME280;7789;51.364;12.358;2024-03-17T05:56:12;101142.59;;;4.69;100.00
15382;BME280;7789;51.364;12.358;2024-03-17T06:01:32;101158.41;;;4.81;100.00
15382;BME280;7789;51.364;12.358;2024-03-17T06:06:50;101157.13;;;4.90;100.00
15382;BME280;7789;51.364;12.358;2024-03-17T06:12:03;101159.22;;;5.00;100.00
15382;BME280;7789;51.364;12.358;2024-03-17T06:23:13;101163.19;;;5.26;100.00
15382;BME280;7789;51.364;12.358;2024-03-17T06:28:19;101156.44;;;5.40;100.00
15382;BME280;7789;51.364;12.358;2024-03-17T06:33:26;101161.56;;;5.58;100.00
15382;BME280;7789;51.364;12.358;2024-03-17T06:38:41;101167.19;;;5.85;100.00
15382;BME280;7789;51.364;12.358;2024-03-17T06:43:44;101173.22;;;6.52;100.00
15382;BME280;7789;51.364;12.358;2024-03-17T06:48:49;101167.81;;;8.65;93.80
15382;BME280;7789;51.364;12.358;2024-03-17T06:54:03;101171.50;;;10.34;87.54
15382;BME280;7789;51.364;12.358;2024-03-17T06:59:17;101163.78;;;11.29;84.23
15382;BME280;7789;51.364;12.358;2024-03-17T07:04:32;101182.63;;;11.34;81.21
15382;BME280;7789;51.364;12.358;2024-03-17T07:09:36;101170.78;;;11.28;83.01
15382;BME280;7789;51.364;12.358;2024-03-17T07:14:47;101184.00;;;11.86;81.93
15382;BME280;7789;51.364;12.358;2024-03-17T07:20:05;101164.47;;;11.90;79.30
15382;BME280;7789;51.364;12.358;2024-03-17T07:25:25;101166.28;;;12.01;77.47
15382;BME280;7789;51.364;12.358;2024-03-17T07:30:52;101170.50;;;12.25;77.51
15382;BME280;7789;51.364;12.358;2024-03-17T07:36:11;101168.56;;;12.05;78.06
15382;BME280;7789;51.364;12.358;2024-03-17T07:41:19;101167.69;;;11.94;77.70
15382;BME280;7789;51.364;12.358;2024-03-17T07:46:34;101173.66;;;11.96;77.46
15382;BME280;7789;51.364;12.358;2024-03-17T07:51:48;101165.84;;;12.18;76.89
15382;BME280;7789;51.364;12.358;2024-03-17T07:57:20;101169.31;;;12.29;75.49
15382;BME280;7789;51.364;12.358;2024-03-17T08:02:38;101173.28;;;12.89;74.00
15382;BME280;7789;51.364;12.358;2024-03-17T08:07:47;101167.31;;;13.09;73.12
15382;BME280;7789;51.364;12.358;2024-03-17T08:13:08;101160.00;;;14.69;67.69
15382;BME280;7789;51.364;12.358;2024-03-17T08:18:19;101163.56;;;14.88;67.43
15382;BME280;7789;51.364;12.358;2024-03-17T08:23:39;101156.25;;;14.62;68.84
15382;BME280;7789;51.364;12.358;2024-03-17T08:28:57;101160.25;;;14.36;66.93
15382;BME280;7789;51.364;12.358;2024-03-17T08:34:08;101154.56;;;14.31;67.56
15382;BME280;7789;51.364;12.358;2024-03-17T08:39:17;101138.59;;;14.82;65.81
15382;BME280;7789;51.364;12.358;2024-03-17T08:44:31;101135.03;;;15.61;64.29
15382;BME280;7789;51.364;12.358;2024-03-17T08:49:42;101130.59;;;15.90;62.36
15382;BME280;7789;51.364;12.358;2024-03-17T09:12:04;101126.72;;;14.97;64.66
15382;BME280;7789;51.364;12.358;2024-03-17T09:17:13;101117.44;;;15.42;63.87
15382;BME280;7789;51.364;12.358;2024-03-17T09:22:20;101121.59;;;15.05;62.59
15382;BME280;7789;51.364;12.358;2024-03-17T09:27:56;101119.53;;;14.99;61.18
15382;BME280;7789;51.364;12.358;2024-03-17T09:33:08;101128.97;;;15.02;61.33
15382;BME280;7789;51.364;12.358;2024-03-17T09:38:14;101121.84;;;14.83;60.74
15382;BME280;7789;51.364;12.358;2024-03-17T09:43:22;101116.13;;;14.69;61.96
15382;BME280;7789;51.364;12.358;2024-03-17T09:48:35;101111.84;;;14.78;61.17
15382;BME280;7789;51.364;12.358;2024-03-17T09:54:17;101108.47;;;14.57;59.00
15382;BME280;7789;51.364;12.358;2024-03-17T09:59:58;101107.03;;;14.53;58.34
15382;BME280;7789;51.364;12.358;2024-03-17T10:05:21;101100.44;;;14.68;59.83
15382;BME280;7789;51.364;12.358;2024-03-17T10:10:55;101095.38;;;14.85;59.41
15382;BME280;7789;51.364;12.358;2024-03-17T10:16:26;101099.84;;;14.55;58.73
15382;BME280;7789;51.364;12.358;2024-03-17T10:22:02;101096.44;;;14.13;58.81
15382;BME280;7789;51.364;12.358;2024-03-17T10:27:12;101100.47;;;13.97;59.45
15382;BME280;7789;51.364;12.358;2024-03-17T10:32:20;101102.41;;;13.95;59.13
15382;BME280;7789;51.364;12.358;2024-03-17T10:37:29;101093.81;;;13.93;59.99
15382;BME280;7789;51.364;12.358;2024-03-17T10:48:47;101096.00;;;14.29;59.88
15382;BME280;7789;51.364;12.358;2024-03-17T10:54:05;101088.53;;;14.34;59.32
15382;BME280;7789;51.364;12.358;2024-03-17T10:59:36;101088.03;;;14.40;58.57
15382;BME280;7789;51.364;12.358;2024-03-17T11:04:55;101088.19;;;14.48;57.88
15382;BME280;7789;51.364;12.358;2024-03-17T11:10:19;101091.09;;;14.45;57.56
15382;BME280;7789;51.364;12.358;2024-03-17T11:15:44;101073.59;;;14.34;58.24
15382;BME280;7789;51.364;12.358;2024-03-17T11:21:22;101069.97;;;14.26;60.34
15382;BME280;7789;51.364;12.358;2024-03-17T11:26:34;101079.41;;;14.38;59.00
15382;BME280;7789;51.364;12.358;2024-03-17T11:38:05;101073.56;;;13.84;60.53
15382;BME280;7789;51.364;12.358;2024-03-17T11:43:16;101062.03;;;13.55;60.54
15382;BME280;7789;51.364;12.358;2024-03-17T11:48:40;101052.53;;;13.43;61.51
15382;BME280;7789;51.364;12.358;2024-03-17T11:54:23;101051.34;;;13.36;60.50
15382;BME280;7789;51.364;12.358;2024-03-17T11:59:57;101046.19;;;13.14;61.23
15382;BME280;7789;51.364;12.358;2024-03-17T12:05:01;101058.53;;;13.02;60.91
15382;BME280;7789;51.364;12.358;2024-03-17T12:10:32;101057.47;;;13.05;60.97
15382;BME280;7789;51.364;12.358;2024-03-17T12:16:14;101051.59;;;13.12;60.85
15382;BME280;7789;51.364;12.358;2024-03-17T12:21:24;101039.00;;;12.96;60.32
15382;BME280;7789;51.364;12.358;2024-03-17T12:26:59;101025.88;;;12.96;60.08
15382;BME280;7789;51.364;12.358;2024-03-17T12:32:26;101014.88;;;13.01;60.08
15382;BME280;7789;51.364;12.358;2024-03-17T12:37:37;101018.81;;;13.27;60.28
15382;BME280;7789;51.364;12.358;2024-03-17T12:43:08;101021.34;;;13.18;59.96
15382;BME280;7789;51.364;12.358;2024-03-17T12:54:12;101016.69;;;12.90;60.52
15382;BME280;7789;51.364;12.358;2024-03-17T12:59:24;101021.78;;;12.91;60.64
15382;BME280;7789;51.364;12.358;2024-03-17T13:05:06;101017.38;;;12.92;59.63
15382;BME280;7789;51.364;12.358;2024-03-17T13:10:16;101009.72;;;13.00;59.83
15382;BME280;7789;51.364;12.358;2024-03-17T13:15:51;100985.38;;;13.09;59.03
15382;BME280;7789;51.364;12.358;2024-03-17T13:21:06;100975.69;;;13.09;58.45
15382;BME280;7789;51.364;12.358;2024-03-17T13:26:14;100968.44;;;13.02;58.52
15382;BME280;7789;51.364;12.358;2024-03-17T13:31:30;100971.22;;;12.89;58.21
15382;BME280;7789;51.364;12.358;2024-03-17T13:36:58;100970.66;;;12.86;57.46
15382;BME280;7789;51.364;12.358;2024-03-17T13:42:22;100968.50;;;12.80;57.49
15382;BME280;7789;51.364;12.358;2024-03-17T13:47:29;100969.47;;;12.79;58.65
15382;BME280;7789;51.364;12.358;2024-03-17T13:52:34;100972.47;;;12.75;57.63
15382;BME280;7789;51.364;12.358;2024-03-17T13:57:49;100979.00;;;12.80;56.98
15382;BME280;7789;51.364;12.358;2024-03-17T14:02:58;100985.09;;;12.81;56.20
15382;BME280;7789;51.364;12.358;2024-03-17T14:08:11;100979.59;;;12.84;56.56
15382;BME280;7789;51.364;12.358;2024-03-17T14:14:04;100983.19;;;12.83;56.06
15382;BME280;7789;51.364;12.358;2024-03-17T14:19:56;100965.78;;;12.71;56.08
15382;BME280;7789;51.364;12.358;2024-03-17T14:25:25;100967.38;;;12.62;57.38
15382;BME280;7789;51.364;12.358;2024-03-17T14:30:34;100966.47;;;12.52;59.47
15382;BME280;7789;51.364;12.358;2024-03-17T14:36:00;100960.63;;;12.38;58.95
15382;BME280;7789;51.364;12.358;2024-03-17T14:41:06;100948.84;;;12.32;58.98
15382;BME280;7789;51.364;12.358;2024-03-17T14:46:15;100958.88;;;12.27;60.27
15382;BME280;7789;51.364;12.358;2024-03-17T14:51:41;100941.72;;;12.23;59.74
15382;BME280;7789;51.364;12.358;2024-03-17T14:57:01;100940.53;;;12.16;59.39
15382;BME280;7789;51.364;12.358;2024-03-17T15:02:19;100937.91;;;12.16;58.82
15382;BME280;7789;51.364;12.358;2024-03-17T15:07:31;100936.25;;;12.15;59.50
15382;BME280;7789;51.364;12.358;2024-03-17T15:13:00;100944.34;;;12.12;59.94
15382;BME280;7789;51.364;12.358;2024-03-17T15:18:31;100933.41;;;12.07;60.40
15382;BME280;7789;51.364;12.358;2024-03-17T15:23:38;100928.53;;;12.03;60.06
15382;BME280;7789;51.364;12.358;2024-03-17T15:28:45;100923.63;;;11.98;60.79
15382;BME280;7789;51.364;12.358;2024-03-17T15:34:12;100923.06;;;11.95;61.32
15382;BME280;7789;51.364;12.358;2024-03-17T15:39:53;100921.88;;;11.88;61.33
15382;BME280;7789;51.364;12.358;2024-03-17T15:45:24;100914.59;;;11.80;62.07
15382;BME280;7789;51.364;12.358;2024-03-17T15:50:39;100917.81;;;11.73;62.34
15382;BME280;7789;51.364;12.358;2024-03-17T15:55:53;100914.88;;;11.66;62.64
15382;BME280;7789;51.364;12.358;2024-03-17T16:01:17;100916.03;;;11.62;61.91
15382;BME280;7789;51.364;12.358;2024-03-17T16:07:14;100917.44;;;11.55;61.95
15382;BME280;7789;51.364;12.358;2024-03-17T16:12:36;100910.78;;;11.51;61.74
15382;BME280;7789;51.364;12.358;2024-03-17T16:18:02;100906.00;;;11.45;62.36
15382;BME280;7789;51.364;12.358;2024-03-17T16:23:37;100899.81;;;11.35;61.82
15382;BME280;7789;51.364;12.358;2024-03-17T16:29:10;100893.13;;;11.31;61.93
15382;BME280;7789;51.364;12.358;2024-03-17T16:34:25;100902.50;;;11.23;62.23
15382;BME280;7789;51.364;12.358;2024-03-17T16:40:14;100900.50;;;11.15;62.83
15382;BME280;7789;51.364;12.358;2024-03-17T16:46:04;100891.66;;;11.05;64.78
15382;BME280;7789;51.364;12.358;2024-03-17T16:51:28;100907.44;;;10.93;63.52
15382;BME280;7789;51.364;12.358;2024-03-17T16:57:10;100906.69;;;10.80;64.74
15382;BME280;7789;51.364;12.358;2024-03-17T17:02:32;100900.34;;;10.72;64.33
15382;BME280;7789;51.364;12.358;2024-03-17T17:08:04;100903.53;;;10.64;64.88
15382;BME280;7789;51.364;12.358;2024-03-17T17:13:29;100903.47;;;10.53;65.13
15382;BME280;7789;51.364;12.358;2024-03-17T17:19:02;100902.50;;;10.43;64.43
15382;BME280;7789;51.364;12.358;2024-03-17T17:24:15;100905.75;;;10.34;65.05
15382;BME280;7789;51.364;12.358;2024-03-17T17:29:19;100907.16;;;10.27;66.02
15382;BME280;7789;51.364;12.358;2024-03-17T17:34:23;100914.09;;;10.16;65.88
15382;BME280;7789;51.364;12.358;2024-03-17T17:39:26;100901.69;;;10.07;65.21
15382;BME280;7789;51.364;12.358;2024-03-17T17:44:29;100905.03;;;9.96;66.36
15382;BME280;7789;51.364;12.358;2024-03-17T17:49:44;100905.69;;;9.87;66.58
15382;BME280;7789;51.364;12.358;2024-03-17T17:55:28;100908.19;;;9.76;66.61
15382;BME280;7789;51.364;12.358;2024-03-17T18:01:03;100911.56;;;9.66;66.75
15382;BME280;7789;51.364;12.358;2024-03-17T18:06:16;100899.13;;;9.57;67.25
15382;BME280;7789;51.364;12.358;2024-03-17T18:11:45;100901.47;;;9.49;67.90
15382;BME280;7789;51.364;12.358;2024-03-17T18:17:06;100912.28;;;9.43;67.69
15382;BME280;7789;51.364;12.358;2024-03-17T18:22:51;100915.31;;;9.37;67.66
15382;BME280;7789;51.364;12.358;2024-03-17T18:28:01;100916.69;;;9.30;67.76
15382;BME280;7789;51.364;12.358;2024-03-17T18:33:55;100920.34;;;9.27;68.44
15382;BME280;7789;51.364;12.358;2024-03-17T18:39:39;100923.66;;;9.17;68.58
15382;BME280;7789;51.364;12.358;2024-03-17T18:45:21;100912.09;;;9.09;68.72
15382;BME280;7789;51.364;12.358;2024-03-17T18:50:56;100924.69;;;9.02;69.46
15382;BME280;7789;51.364;12.358;2024-03-17T18:56:54;100925.00;;;8.98;69.75
15382;BME280;7789;51.364;12.358;2024-03-17T19:02:29;100919.75;;;8.85;69.97
15382;BME280;7789;51.364;12.358;2024-03-17T19:08:10;100920.25;;;8.78;69.53
15382;BME280;7789;51.364;12.358;2024-03-17T19:13:24;100923.38;;;8.70;69.83
15382;BME280;7789;51.364;12.358;2024-03-17T19:18:55;100913.34;;;8.64;69.90
15382;BME280;7789;51.364;12.358;2024-03-17T19:24:23;100912.91;;;8.58;69.93
15382;BME280;7789;51.364;12.358;2024-03-17T19:30:00;100913.31;;;8.52;70.39
15382;BME280;7789;51.364;12.358;2024-03-17T19:41:14;100903.75;;;8.38;70.44
15382;BME280;7789;51.364;12.358;2024-03-17T19:47:23;100906.84;;;8.31;71.05
15382;BME280;7789;51.364;12.358;2024-03-17T19:53:09;100914.88;;;8.28;70.79
15382;BME280;7789;51.364;12.358;2024-03-17T19:59:09;100920.47;;;8.22;71.51
15382;BME280;7789;51.364;12.358;2024-03-17T20:04:42;100919.88;;;8.17;72.33
15382;BME280;7789;51.364;12.358;2024-03-17T20:10:17;100923.16;;;8.06;72.08
15382;BME280;7789;51.364;12.358;2024-03-17T20:16:08;100928.47;;;8.05;73.14
15382;BME280;7789;51.364;12.358;2024-03-17T20:26:50;100922.44;;;7.90;72.39
15382;BME280;7789;51.364;12.358;2024-03-17T20:32:15;100927.09;;;7.85;72.37
15382;BME280;7789;51.364;12.358;2024-03-17T20:43:34;100928.22;;;7.67;73.99
15382;BME280;7789;51.364;12.358;2024-03-17T20:49:00;100916.44;;;7.62;73.50
15382;BME280;7789;51.364;12.358;2024-03-17T20:54:24;100910.88;;;7.54;74.09
15382;BME280;7789;51.364;12.358;2024-03-17T20:59:50;100913.94;;;7.46;73.56
15382;BME280;7789;51.364;12.358;2024-03-17T21:05:03;100909.28;;;7.37;73.63
15382;BME280;7789;51.364;12.358;2024-03-17T21:10:08;100908.53;;;7.35;73.91
15382;BME280;7789;51.364;12.358;2024-03-17T21:15:14;100909.72;;;7.30;74.42
15382;BME280;7789;51.364;12.358;2024-03-17T21:20:29;100897.03;;;7.26;74.06
15382;BME280;7789;51.364;12.358;2024-03-17T21:25:37;100897.28;;;7.21;74.13
15382;BME280;7789;51.364;12.358;2024-03-17T21:30:58;100891.69;;;7.13;74.67
15382;BME280;7789;51.364;12.358;2024-03-17T21:36:05;100895.53;;;7.08;74.68
15382;BME280;7789;51.364;12.358;2024-03-17T21:41:35;100890.41;;;7.06;74.38
15382;BME280;7789;51.364;12.358;2024-03-17T21:46:56;100888.06;;;7.02;75.47
15382;BME280;7789;51.364;12.358;2024-03-17T21:52:11;100885.09;;;6.94;75.06
15382;BME280;7789;51.364;12.358;2024-03-17T21:57:35;100876.72;;;6.89;75.44
15382;BME280;7789;51.364;12.358;2024-03-17T22:02:44;100876.06;;;6.85;74.97
15382;BME280;7789;51.364;12.358;2024-03-17T22:07:54;100871.13;;;6.81;74.68
15382;BME280;7789;51.364;12.358;2024-03-17T22:13:20;100880.59;;;6.82;75.81
15382;BME280;7789;51.364;12.358;2024-03-17T22:18:49;100886.00;;;6.79;75.64
15382;BME280;7789;51.364;12.358;2024-03-17T22:24:01;100883.47;;;6.77;74.61
15382;BME280;7789;51.364;12.358;2024-03-17T22:29:17;100873.94;;;6.78;75.50
15382;BME280;7789;51.364;12.358;2024-03-17T22:34:40;100869.72;;;6.75;74.37
15382;BME280;7789;51.364;12.358;2024-03-17T22:39:58;100869.66;;;6.77;75.26
15382;BME280;7789;51.364;12.358;2024-03-17T22:45:09;100863.78;;;6.73;74.92
15382;BME280;7789;51.364;12.358;2024-03-17T22:50:18;100867.31;;;6.72;74.01
15382;BME280;7789;51.364;12.358;2024-03-17T22:55:46;100860.53;;;6.70;74.73
15382;BME280;7789;51.364;12.358;2024-03-17T23:01:12;100862.56;;;6.65;74.82
15382;BME280;7789;51.364;12.358;2024-03-17T23:06:42;100868.88;;;6.61;74.27
15382;BME280;7789;51.364;12.358;2024-03-17T23:11:50;100868.88;;;6.61;74.67
15382;BME280;7789;51.364;12.358;2024-03-17T23:16:54;100867.28;;;6.58;74.46
15382;BME280;7789;51.364;12.358;2024-03-17T23:22:07;100865.03;;;6.52;74.24
15382;BME280;7789;51.364;12.358;2024-03-17T23:27:13;100869.81;;;6.44;74.97
15382;BME280;7789;51.364;12.358;2024-03-17T23:32:21;100868.50;;;6.37;74.59
15382;BME280;7789;51.364;12.358;2024-03-17T23:37:28;100871.47;;;6.31;75.63
15382;BME280;7789;51.364;12.358;2024-03-17T23:42:32;100867.34;;;6.27;75.87
15382;BME280;7789;51.364;12.358;2024-03-17T23:47:43;100864.16;;;6.22;75.91
15382;BME280;7789;51.364;12.358;2024-03-17T23:52:59;100858.66;;;6.13;76.06
15382;BME280;7789;51.364;12.358;2024-03-17T23:58:17;100858.25;;;6.05;75.83
